sensor_id;sensor_type;location;lat;lon;timestamp;temperature;humidity
40848;DHT22;26570;50.962;5.340;2023-04-24T00:04:44;10.50;99.90
40848;DHT22;26570;50.962;5.340;2023-04-24T00:07:30;10.60;99.90
40848;DHT22;26570;50.962;5.340;2023-04-24T00:10:16;10.60;99.90
40848;DHT22;26570;50.962;5.340;2023-04-24T00:13:01;10.50;99.90
40848;DHT22;26570;50.962;5.340;2023-04-24T00:15:47;10.40;99.90
40848;DHT22;26570;50.962;5.340;2023-04-24T00:18:32;10.50;99.90
40848;DHT22;26570;50.962;5.340;2023-04-24T00:21:18;10.50;99.90
40848;DHT22;26570;50.962;5.340;2023-04-24T00:24:05;10.40;99.90
40848;DHT22;26570;50.962;5.340;2023-04-24T00:26:50;10.40;99.90
40848;DHT22;26570;50.962;5.340;2023-04-24T00:29:38;10.50;99.90
40848;DHT22;26570;50.962;5.340;2023-04-24T00:32:24;10.40;99.90
40848;DHT22;26570;50.962;5.340;2023-04-24T00:35:10;10.40;99.90
40848;DHT22;26570;50.962;5.340;2023-04-24T00:37:55;10.50;99.90
40848;DHT22;26570;50.962;5.340;2023-04-24T00:40:40;10.40;99.90
40848;DHT22;26570;50.962;5.340;2023-04-24T00:43:26;10.40;99.90
40848;DHT22;26570;50.962;5.340;2023-04-24T00:46:12;10.40;99.90
40848;DHT22;26570;50.962;5.340;2023-04-24T00:48:59;10.30;99.90
40848;DHT22;26570;50.962;5.340;2023-04-24T00:51:44;10.20;99.90
40848;DHT22;26570;50.962;5.340;2023-04-24T00:54:52;10.30;99.90
40848;DHT22;26570;50.962;5.340;2023-04-24T00:57:38;10.30;99.90
40848;DHT22;26570;50.962;5.340;2023-04-24T01:00:46;10.40;99.90
40848;DHT22;26570;50.962;5.340;2023-04-24T01:03:33;10.30;99.90
40848;DHT22;26570;50.962;5.340;2023-04-24T01:06:22;10.30;99.90
40848;DHT22;26570;50.962;5.340;2023-04-24T01:09:09;10.30;99.90
40848;DHT22;26570;50.962;5.340;2023-04-24T01:11:58;10.30;99.90
40848;DHT22;26570;50.962;5.340;2023-04-24T01:14:44;10.50;99.90
40848;DHT22;26570;50.962;5.340;2023-04-24T01:17:29;10.40;99.90
40848;DHT22;26570;50.962;5.340;2023-04-24T01:20:17;10.50;99.90
40848;DHT22;26570;50.962;5.340;2023-04-24T01:23:02;10.50;99.90
40848;DHT22;26570;50.962;5.340;2023-04-24T01:26:12;10.50;99.90
40848;DHT22;26570;50.962;5.340;2023-04-24T01:28:57;10.40;99.90
40848;DHT22;26570;50.962;5.340;2023-04-24T01:31:43;10.40;99.90
40848;DHT22;26570;50.962;5.340;2023-04-24T01:34:29;10.30;99.90
40848;DHT22;26570;50.962;5.340;2023-04-24T01:37:15;10.40;99.90
40848;DHT22;26570;50.962;5.340;2023-04-24T01:40:02;10.40;99.90
40848;DHT22;26570;50.962;5.340;2023-04-24T01:42:48;10.20;99.90
40848;DHT22;26570;50.962;5.340;2023-04-24T01:45:34;10.40;99.90
40848;DHT22;26570;50.962;5.340;2023-04-24T01:48:20;10.30;99.90
40848;DHT22;26570;50.962;5.340;2023-04-24T01:51:28;10.40;99.90
40848;DHT22;26570;50.962;5.340;2023-04-24T01:54:13;10.30;99.90
40848;DHT22;26570;50.962;5.340;2023-04-24T01:57:02;10.20;99.90
40848;DHT22;26570;50.962;5.340;2023-04-24T01:59:48;10.30;99.90
40848;DHT22;26570;50.962;5.340;2023-04-24T02:02:33;10.30;99.90
40848;DHT22;26570;50.962;5.340;2023-04-24T02:05:19;10.30;99.90
40848;DHT22;26570;50.962;5.340;2023-04-24T02:08:04;10.30;99.90
40848;DHT22;26570;50.962;5.340;2023-04-24T02:10:50;10.20;99.90
40848;DHT22;26570;50.962;5.340;2023-04-24T02:13:35;10.30;99.90
40848;DHT22;26570;50.962;5.340;2023-04-24T02:16:21;9.90;99.90
40848;DHT22;26570;50.962;5.340;2023-04-24T02:19:06;10.20;99.90
40848;DHT22;26570;50.962;5.340;2023-04-24T02:22:14;10.10;99.90
40848;DHT22;26570;50.962;5.340;2023-04-24T02:25:03;10.10;99.90
40848;DHT22;26570;50.962;5.340;2023-04-24T02:30:35;10.10;99.90
40848;DHT22;26570;50.962;5.340;2023-04-24T02:33:20;10.00;99.90
40848;DHT22;26570;50.962;5.340;2023-04-24T02:36:06;10.00;99.90
40848;DHT22;26570;50.962;5.340;2023-04-24T02:38:52;10.00;99.90
40848;DHT22;26570;50.962;5.340;2023-04-24T02:41:38;10.00;99.90
40848;DHT22;26570;50.962;5.340;2023-04-24T02:44:23;10.10;99.90
40848;DHT22;26570;50.962;5.340;2023-04-24T02:47:31;10.00;99.90
40848;DHT22;26570;50.962;5.340;2023-04-24T02:50:17;9.80;99.90
40848;DHT22;26570;50.962;5.340;2023-04-24T02:53:02;9.70;99.90
40848;DHT22;26570;50.962;5.340;2023-04-24T02:55:48;9.90;99.90
40848;DHT22;26570;50.962;5.340;2023-04-24T02:58:33;9.80;99.90
40848;DHT22;26570;50.962;5.340;2023-04-24T03:01:42;9.90;99.90
40848;DHT22;26570;50.962;5.340;2023-04-24T03:04:50;9.80;99.90
40848;DHT22;26570;50.962;5.340;2023-04-24T03:07:36;9.80;99.90
40848;DHT22;26570;50.962;5.340;2023-04-24T03:10:21;9.80;99.90
40848;DHT22;26570;50.962;5.340;2023-04-24T03:13:10;9.70;99.90
40848;DHT22;26570;50.962;5.340;2023-04-24T03:15:59;9.70;99.90
40848;DHT22;26570;50.962;5.340;2023-04-24T03:18:48;9.60;99.90
40848;DHT22;26570;50.962;5.340;2023-04-24T03:21:33;9.50;99.90
40848;DHT22;26570;50.962;5.340;2023-04-24T03:24:20;9.50;99.90
40848;DHT22;26570;50.962;5.340;2023-04-24T03:27:06;9.50;99.90
40848;DHT22;26570;50.962;5.340;2023-04-24T03:29:51;9.60;99.90
40848;DHT22;26570;50.962;5.340;2023-04-24T03:32:40;9.70;99.90
40848;DHT22;26570;50.962;5.340;2023-04-24T03:35:26;9.60;99.90
40848;DHT22;26570;50.962;5.340;2023-04-24T03:38:11;9.60;99.90
40848;DHT22;26570;50.962;5.340;2023-04-24T03:40:57;9.60;99.90
40848;DHT22;26570;50.962;5.340;2023-04-24T03:43:42;9.60;99.90
40848;DHT22;26570;50.962;5.340;2023-04-24T03:46:28;9.50;99.90
40848;DHT22;26570;50.962;5.340;2023-04-24T03:49:13;9.40;99.90
40848;DHT22;26570;50.962;5.340;2023-04-24T03:51:59;9.40;99.90
40848;DHT22;26570;50.962;5.340;2023-04-24T03:54:44;9.30;99.90
40848;DHT22;26570;50.962;5.340;2023-04-24T03:57:29;9.30;99.90
40848;DHT22;26570;50.962;5.340;2023-04-24T04:00:15;9.30;99.90
40848;DHT22;26570;50.962;5.340;2023-04-24T04:03:01;9.10;99.90
40848;DHT22;26570;50.962;5.340;2023-04-24T04:05:46;9.40;99.90
40848;DHT22;26570;50.962;5.340;2023-04-24T04:08:54;9.40;99.90
40848;DHT22;26570;50.962;5.340;2023-04-24T04:11:39;9.40;99.90
40848;DHT22;26570;50.962;5.340;2023-04-24T04:14:27;9.50;99.90
40848;DHT22;26570;50.962;5.340;2023-04-24T04:17:13;9.50;99.90
40848;DHT22;26570;50.962;5.340;2023-04-24T04:19:58;9.40;99.90
40848;DHT22;26570;50.962;5.340;2023-04-24T04:22:45;9.40;99.90
40848;DHT22;26570;50.962;5.340;2023-04-24T04:25:31;9.30;99.90
40848;DHT22;26570;50.962;5.340;2023-04-24T04:28:19;9.20;99.90
40848;DHT22;26570;50.962;5.340;2023-04-24T04:31:06;9.30;99.90
40848;DHT22;26570;50.962;5.340;2023-04-24T04:33:52;9.30;99.90
40848;DHT22;26570;50.962;5.340;2023-04-24T04:36:38;9.40;99.90
40848;DHT22;26570;50.962;5.340;2023-04-24T04:39:25;9.20;99.90
40848;DHT22;26570;50.962;5.340;2023-04-24T04:42:33;9.20;99.90
40848;DHT22;26570;50.962;5.340;2023-04-24T04:45:19;9.10;99.90
40848;DHT22;26570;50.962;5.340;2023-04-24T04:48:05;9.10;99.90
40848;DHT22;26570;50.962;5.340;2023-04-24T04:51:14;9.30;99.90
40848;DHT22;26570;50.962;5.340;2023-04-24T04:53:59;9.20;99.90
40848;DHT22;26570;50.962;5.340;2023-04-24T04:56:44;9.10;99.90
40848;DHT22;26570;50.962;5.340;2023-04-24T04:59:30;9.10;99.90
40848;DHT22;26570;50.962;5.340;2023-04-24T05:02:16;9.00;99.90
40848;DHT22;26570;50.962;5.340;2023-04-24T05:05:01;9.00;99.90
40848;DHT22;26570;50.962;5.340;2023-04-24T05:07:46;8.80;99.90
40848;DHT22;26570;50.962;5.340;2023-04-24T05:10:32;8.90;99.90
40848;DHT22;26570;50.962;5.340;2023-04-24T05:13:17;8.90;99.90
40848;DHT22;26570;50.962;5.340;2023-04-24T05:16:03;8.90;99.90
40848;DHT22;26570;50.962;5.340;2023-04-24T05:18:48;9.10;99.90
40848;DHT22;26570;50.962;5.340;2023-04-24T05:21:33;9.20;99.90
40848;DHT22;26570;50.962;5.340;2023-04-24T05:24:18;9.30;99.90
40848;DHT22;26570;50.962;5.340;2023-04-24T05:27:04;9.30;99.90
40848;DHT22;26570;50.962;5.340;2023-04-24T05:29:50;9.20;99.90
40848;DHT22;26570;50.962;5.340;2023-04-24T05:32:35;9.30;99.90
40848;DHT22;26570;50.962;5.340;2023-04-24T05:35:22;9.30;99.90
40848;DHT22;26570;50.962;5.340;2023-04-24T05:38:07;9.30;99.90
40848;DHT22;26570;50.962;5.340;2023-04-24T05:40:52;9.30;99.90
40848;DHT22;26570;50.962;5.340;2023-04-24T05:43:38;9.30;99.90
40848;DHT22;26570;50.962;5.340;2023-04-24T05:46:23;9.20;99.90
40848;DHT22;26570;50.962;5.340;2023-04-24T05:49:08;9.10;99.90
40848;DHT22;26570;50.962;5.340;2023-04-24T05:51:54;9.00;99.90
40848;DHT22;26570;50.962;5.340;2023-04-24T05:54:40;8.90;99.90
40848;DHT22;26570;50.962;5.340;2023-04-24T05:57:25;9.00;99.90
40848;DHT22;26570;50.962;5.340;2023-04-24T06:00:11;9.00;99.90
40848;DHT22;26570;50.962;5.340;2023-04-24T06:03:00;8.90;99.90
40848;DHT22;26570;50.962;5.340;2023-04-24T06:05:46;8.90;99.90
40848;DHT22;26570;50.962;5.340;2023-04-24T06:08:31;9.00;99.90
40848;DHT22;26570;50.962;5.340;2023-04-24T06:11:17;8.90;99.90
40848;DHT22;26570;50.962;5.340;2023-04-24T06:14:02;8.90;99.90
40848;DHT22;26570;50.962;5.340;2023-04-24T06:17:10;8.80;99.90
40848;DHT22;26570;50.962;5.340;2023-04-24T06:19:58;8.70;99.90
40848;DHT22;26570;50.962;5.340;2023-04-24T06:22:46;8.60;99.90
40848;DHT22;26570;50.962;5.340;2023-04-24T06:25:33;8.70;99.90
40848;DHT22;26570;50.962;5.340;2023-04-24T06:28:22;8.80;99.90
40848;DHT22;26570;50.962;5.340;2023-04-24T06:31:06;8.80;99.90
40848;DHT22;26570;50.962;5.340;2023-04-24T06:33:52;8.60;99.90
40848;DHT22;26570;50.962;5.340;2023-04-24T06:36:59;8.60;99.90
40848;DHT22;26570;50.962;5.340;2023-04-24T06:39:46;8.60;99.90
40848;DHT22;26570;50.962;5.340;2023-04-24T06:42:31;8.70;99.90
40848;DHT22;26570;50.962;5.340;2023-04-24T06:45:17;8.80;99.90
40848;DHT22;26570;50.962;5.340;2023-04-24T06:48:02;8.80;99.90
40848;DHT22;26570;50.962;5.340;2023-04-24T06:50:47;8.70;99.90
40848;DHT22;26570;50.962;5.340;2023-04-24T06:53:35;8.80;99.90
40848;DHT22;26570;50.962;5.340;2023-04-24T06:56:25;8.70;99.90
40848;DHT22;26570;50.962;5.340;2023-04-24T06:59:10;8.70;99.90
40848;DHT22;26570;50.962;5.340;2023-04-24T07:02:01;8.80;99.90
40848;DHT22;26570;50.962;5.340;2023-04-24T07:04:48;8.70;99.90
40848;DHT22;26570;50.962;5.340;2023-04-24T07:07:35;8.70;99.90
40848;DHT22;26570;50.962;5.340;2023-04-24T07:10:22;8.80;99.90
40848;DHT22;26570;50.962;5.340;2023-04-24T07:13:10;8.90;99.90
40848;DHT22;26570;50.962;5.340;2023-04-24T07:15:55;8.90;99.90
40848;DHT22;26570;50.962;5.340;2023-04-24T07:18:40;8.80;99.90
40848;DHT22;26570;50.962;5.340;2023-04-24T07:21:25;8.90;99.90
40848;DHT22;26570;50.962;5.340;2023-04-24T07:24:11;8.80;99.90
40848;DHT22;26570;50.962;5.340;2023-04-24T07:26:57;9.00;99.90
40848;DHT22;26570;50.962;5.340;2023-04-24T07:29:42;9.20;99.90
40848;DHT22;26570;50.962;5.340;2023-04-24T07:32:27;9.20;99.90
40848;DHT22;26570;50.962;5.340;2023-04-24T07:35:12;9.10;99.90
40848;DHT22;26570;50.962;5.340;2023-04-24T07:37:57;9.30;99.90
40848;DHT22;26570;50.962;5.340;2023-04-24T07:40:42;9.30;99.90
40848;DHT22;26570;50.962;5.340;2023-04-24T07:43:27;9.50;99.90
40848;DHT22;26570;50.962;5.340;2023-04-24T07:46:12;9.40;99.90
40848;DHT22;26570;50.962;5.340;2023-04-24T07:48:58;9.40;99.90
40848;DHT22;26570;50.962;5.340;2023-04-24T07:51:45;9.40;99.90
40848;DHT22;26570;50.962;5.340;2023-04-24T07:54:55;9.40;99.90
40848;DHT22;26570;50.962;5.340;2023-04-24T07:57:43;9.50;99.90
40848;DHT22;26570;50.962;5.340;2023-04-24T08:00:28;9.40;99.90
40848;DHT22;26570;50.962;5.340;2023-04-24T08:03:14;9.50;99.90
40848;DHT22;26570;50.962;5.340;2023-04-24T08:06:03;9.40;99.90
40848;DHT22;26570;50.962;5.340;2023-04-24T08:08:48;9.40;99.90
40848;DHT22;26570;50.962;5.340;2023-04-24T08:11:34;9.50;99.90
40848;DHT22;26570;50.962;5.340;2023-04-24T08:14:19;9.50;99.90
40848;DHT22;26570;50.962;5.340;2023-04-24T08:17:04;9.40;99.90
40848;DHT22;26570;50.962;5.340;2023-04-24T08:19:50;9.30;99.90
40848;DHT22;26570;50.962;5.340;2023-04-24T08:22:37;9.40;99.90
40848;DHT22;26570;50.962;5.340;2023-04-24T08:25:23;9.40;99.90
40848;DHT22;26570;50.962;5.340;2023-04-24T08:28:09;9.40;99.90
40848;DHT22;26570;50.962;5.340;2023-04-24T08:30:56;9.50;99.90
40848;DHT22;26570;50.962;5.340;2023-04-24T08:33:41;9.70;99.90
40848;DHT22;26570;50.962;5.340;2023-04-24T08:36:30;9.60;99.90
40848;DHT22;26570;50.962;5.340;2023-04-24T08:39:17;9.80;99.90
40848;DHT22;26570;50.962;5.340;2023-04-24T08:42:05;10.10;99.90
40848;DHT22;26570;50.962;5.340;2023-04-24T08:45:15;10.30;99.90
40848;DHT22;26570;50.962;5.340;2023-04-24T08:48:02;10.40;99.90
40848;DHT22;26570;50.962;5.340;2023-04-24T08:51:10;10.50;99.90
40848;DHT22;26570;50.962;5.340;2023-04-24T08:53:56;10.60;99.90
40848;DHT22;26570;50.962;5.340;2023-04-24T08:56:44;10.60;99.90
40848;DHT22;26570;50.962;5.340;2023-04-24T08:59:30;10.60;99.90
40848;DHT22;26570;50.962;5.340;2023-04-24T09:02:16;10.70;99.90
40848;DHT22;26570;50.962;5.340;2023-04-24T09:05:03;10.70;99.90
40848;DHT22;26570;50.962;5.340;2023-04-24T09:07:54;10.90;99.90
40848;DHT22;26570;50.962;5.340;2023-04-24T09:11:02;10.80;99.90
40848;DHT22;26570;50.962;5.340;2023-04-24T09:13:51;10.80;99.90
40848;DHT22;26570;50.962;5.340;2023-04-24T09:16:37;10.70;99.90
40848;DHT22;26570;50.962;5.340;2023-04-24T09:19:23;10.50;99.90
40848;DHT22;26570;50.962;5.340;2023-04-24T09:22:09;10.50;99.90
40848;DHT22;26570;50.962;5.340;2023-04-24T09:25:17;10.10;99.90
40848;DHT22;26570;50.962;5.340;2023-04-24T09:28:04;10.20;99.90
40848;DHT22;26570;50.962;5.340;2023-04-24T09:31:17;10.10;99.90
40848;DHT22;26570;50.962;5.340;2023-04-24T09:34:26;10.20;99.90
40848;DHT22;26570;50.962;5.340;2023-04-24T09:37:12;10.20;99.90
40848;DHT22;26570;50.962;5.340;2023-04-24T09:40:17;10.80;99.90
40848;DHT22;26570;50.962;5.340;2023-04-24T09:43:03;11.70;99.90
40848;DHT22;26570;50.962;5.340;2023-04-24T09:45:48;12.20;99.90
40848;DHT22;26570;50.962;5.340;2023-04-24T09:48:36;12.70;99.90
40848;DHT22;26570;50.962;5.340;2023-04-24T09:51:36;12.50;99.90
40848;DHT22;26570;50.962;5.340;2023-04-24T09:54:22;12.60;99.90
40848;DHT22;26570;50.962;5.340;2023-04-24T09:57:08;12.40;99.90
40848;DHT22;26570;50.962;5.340;2023-04-24T10:00:20;12.10;99.90
40848;DHT22;26570;50.962;5.340;2023-04-24T10:03:07;12.20;99.90
40848;DHT22;26570;50.962;5.340;2023-04-24T10:05:53;12.40;99.90
40848;DHT22;26570;50.962;5.340;2023-04-24T10:08:39;12.60;99.90
40848;DHT22;26570;50.962;5.340;2023-04-24T10:11:27;12.60;99.90
40848;DHT22;26570;50.962;5.340;2023-04-24T10:14:14;12.90;99.90
40848;DHT22;26570;50.962;5.340;2023-04-24T10:16:59;12.80;99.90
40848;DHT22;26570;50.962;5.340;2023-04-24T10:19:46;12.80;99.90
40848;DHT22;26570;50.962;5.340;2023-04-24T10:22:33;12.40;99.90
40848;DHT22;26570;50.962;5.340;2023-04-24T10:25:23;12.20;99.90
40848;DHT22;26570;50.962;5.340;2023-04-24T10:28:08;12.10;99.90
40848;DHT22;26570;50.962;5.340;2023-04-24T10:30:54;11.90;99.90
40848;DHT22;26570;50.962;5.340;2023-04-24T10:33:43;11.50;99.90
40848;DHT22;26570;50.962;5.340;2023-04-24T10:36:31;11.60;99.90
40848;DHT22;26570;50.962;5.340;2023-04-24T10:39:17;11.70;99.90
40848;DHT22;26570;50.962;5.340;2023-04-24T10:42:14;11.90;99.90
40848;DHT22;26570;50.962;5.340;2023-04-24T10:45:05;12.20;99.90
40848;DHT22;26570;50.962;5.340;2023-04-24T10:48:07;12.50;99.90
40848;DHT22;26570;50.962;5.340;2023-04-24T10:51:24;12.80;99.90
40848;DHT22;26570;50.962;5.340;2023-04-24T10:54:47;12.70;99.90
40848;DHT22;26570;50.962;5.340;2023-04-24T10:57:32;12.10;99.90
40848;DHT22;26570;50.962;5.340;2023-04-24T11:00:21;11.80;99.90
40848;DHT22;26570;50.962;5.340;2023-04-24T11:03:28;11.80;99.90
40848;DHT22;26570;50.962;5.340;2023-04-24T11:06:14;11.90;99.90
40848;DHT22;26570;50.962;5.340;2023-04-24T11:09:10;11.90;99.90
40848;DHT22;26570;50.962;5.340;2023-04-24T11:12:11;11.70;99.90
40848;DHT22;26570;50.962;5.340;2023-04-24T11:15:01;11.80;99.90
40848;DHT22;26570;50.962;5.340;2023-04-24T11:17:47;11.80;99.90
40848;DHT22;26570;50.962;5.340;2023-04-24T11:20:32;11.60;99.90
40848;DHT22;26570;50.962;5.340;2023-04-24T11:23:18;11.60;99.90
40848;DHT22;26570;50.962;5.340;2023-04-24T11:26:19;11.70;99.90
40848;DHT22;26570;50.962;5.340;2023-04-24T11:29:07;11.20;99.90
40848;DHT22;26570;50.962;5.340;2023-04-24T11:31:53;11.70;99.90
40848;DHT22;26570;50.962;5.340;2023-04-24T11:34:39;12.10;99.90
40848;DHT22;26570;50.962;5.340;2023-04-24T11:37:27;12.20;99.90
40848;DHT22;26570;50.962;5.340;2023-04-24T11:40:15;12.40;99.90
40848;DHT22;26570;50.962;5.340;2023-04-24T11:43:00;12.70;99.90
40848;DHT22;26570;50.962;5.340;2023-04-24T11:45:50;12.30;99.90
40848;DHT22;26570;50.962;5.340;2023-04-24T11:48:35;12.10;99.90
40848;DHT22;26570;50.962;5.340;2023-04-24T11:51:26;12.00;99.90
40848;DHT22;26570;50.962;5.340;2023-04-24T11:54:12;12.10;99.90
40848;DHT22;26570;50.962;5.340;2023-04-24T11:56:57;12.00;99.90
40848;DHT22;26570;50.962;5.340;2023-04-24T11:59:42;12.10;99.90
40848;DHT22;26570;50.962;5.340;2023-04-24T12:02:29;12.30;99.90
40848;DHT22;26570;50.962;5.340;2023-04-24T12:05:21;12.50;99.90
40848;DHT22;26570;50.962;5.340;2023-04-24T12:08:07;12.70;99.90
40848;DHT22;26570;50.962;5.340;2023-04-24T12:10:53;12.70;99.90
40848;DHT22;26570;50.962;5.340;2023-04-24T12:13:39;12.70;99.90
40848;DHT22;26570;50.962;5.340;2023-04-24T12:16:26;13.10;99.90
40848;DHT22;26570;50.962;5.340;2023-04-24T12:19:18;13.20;99.90
40848;DHT22;26570;50.962;5.340;2023-04-24T12:22:06;13.10;99.90
40848;DHT22;26570;50.962;5.340;2023-04-24T12:25:18;13.00;99.90
40848;DHT22;26570;50.962;5.340;2023-04-24T12:30:49;12.70;99.90
40848;DHT22;26570;50.962;5.340;2023-04-24T12:33:36;12.70;99.90
40848;DHT22;26570;50.962;5.340;2023-04-24T12:36:23;12.70;99.90
40848;DHT22;26570;50.962;5.340;2023-04-24T12:39:17;13.00;99.90
40848;DHT22;26570;50.962;5.340;2023-04-24T12:42:04;13.10;99.90
40848;DHT22;26570;50.962;5.340;2023-04-24T12:44:50;13.30;99.90
40848;DHT22;26570;50.962;5.340;2023-04-24T12:47:42;13.20;99.90
40848;DHT22;26570;50.962;5.340;2023-04-24T12:50:28;13.50;99.90
40848;DHT22;26570;50.962;5.340;2023-04-24T12:53:15;13.50;99.90
40848;DHT22;26570;50.962;5.340;2023-04-24T12:56:23;13.60;99.90
40848;DHT22;26570;50.962;5.340;2023-04-24T12:59:09;13.70;99.90
40848;DHT22;26570;50.962;5.340;2023-04-24T13:01:55;13.50;99.90
40848;DHT22;26570;50.962;5.340;2023-04-24T13:04:41;13.30;99.90
40848;DHT22;26570;50.962;5.340;2023-04-24T13:07:27;13.00;99.90
40848;DHT22;26570;50.962;5.340;2023-04-24T13:10:12;13.00;99.90
40848;DHT22;26570;50.962;5.340;2023-04-24T13:12:59;13.20;99.90
40848;DHT22;26570;50.962;5.340;2023-04-24T13:15:45;13.30;99.90
40848;DHT22;26570;50.962;5.340;2023-04-24T13:18:53;13.90;99.90
40848;DHT22;26570;50.962;5.340;2023-04-24T13:21:39;13.80;99.90
40848;DHT22;26570;50.962;5.340;2023-04-24T13:24:25;13.80;99.90
40848;DHT22;26570;50.962;5.340;2023-04-24T13:27:11;14.00;99.90
40848;DHT22;26570;50.962;5.340;2023-04-24T13:30:19;14.00;99.90
40848;DHT22;26570;50.962;5.340;2023-04-24T13:33:06;14.10;99.90
40848;DHT22;26570;50.962;5.340;2023-04-24T13:35:52;14.40;99.90
40848;DHT22;26570;50.962;5.340;2023-04-24T13:39:01;14.80;99.90
40848;DHT22;26570;50.962;5.340;2023-04-24T13:41:46;14.50;99.90
40848;DHT22;26570;50.962;5.340;2023-04-24T13:44:33;14.30;99.90
40848;DHT22;26570;50.962;5.340;2023-04-24T13:47:20;14.60;99.90
40848;DHT22;26570;50.962;5.340;2023-04-24T13:50:07;14.50;99.90
40848;DHT22;26570;50.962;5.340;2023-04-24T13:52:53;14.40;99.90
40848;DHT22;26570;50.962;5.340;2023-04-24T13:55:41;14.80;99.90
40848;DHT22;26570;50.962;5.340;2023-04-24T13:58:28;15.20;99.90
40848;DHT22;26570;50.962;5.340;2023-04-24T14:01:15;15.50;99.90
40848;DHT22;26570;50.962;5.340;2023-04-24T14:04:01;16.00;99.90
40848;DHT22;26570;50.962;5.340;2023-04-24T14:06:47;16.30;99.90
40848;DHT22;26570;50.962;5.340;2023-04-24T14:09:34;15.90;99.90
40848;DHT22;26570;50.962;5.340;2023-04-24T14:12:20;15.80;99.90
40848;DHT22;26570;50.962;5.340;2023-04-24T14:15:07;15.50;99.90
40848;DHT22;26570;50.962;5.340;2023-04-24T14:17:54;15.10;99.90
40848;DHT22;26570;50.962;5.340;2023-04-24T14:21:05;14.70;99.90
40848;DHT22;26570;50.962;5.340;2023-04-24T14:23:54;14.30;99.90
40848;DHT22;26570;50.962;5.340;2023-04-24T14:26:40;14.20;99.90
40848;DHT22;26570;50.962;5.340;2023-04-24T14:29:25;14.20;99.90
40848;DHT22;26570;50.962;5.340;2023-04-24T14:32:11;14.60;99.90
40848;DHT22;26570;50.962;5.340;2023-04-24T14:34:59;14.60;99.90
40848;DHT22;26570;50.962;5.340;2023-04-24T14:37:46;14.70;99.90
40848;DHT22;26570;50.962;5.340;2023-04-24T14:40:33;14.80;99.90
40848;DHT22;26570;50.962;5.340;2023-04-24T14:43:19;14.80;99.90
40848;DHT22;26570;50.962;5.340;2023-04-24T14:46:05;14.90;99.90
40848;DHT22;26570;50.962;5.340;2023-04-24T14:48:50;15.00;99.90
40848;DHT22;26570;50.962;5.340;2023-04-24T14:51:59;14.90;99.90
40848;DHT22;26570;50.962;5.340;2023-04-24T14:54:45;14.70;99.90
40848;DHT22;26570;50.962;5.340;2023-04-24T14:57:32;14.80;99.90
40848;DHT22;26570;50.962;5.340;2023-04-24T15:00:18;15.10;99.90
40848;DHT22;26570;50.962;5.340;2023-04-24T15:03:27;15.20;99.90
40848;DHT22;26570;50.962;5.340;2023-04-24T15:06:14;15.00;99.90
40848;DHT22;26570;50.962;5.340;2023-04-24T15:08:59;14.80;99.90
40848;DHT22;26570;50.962;5.340;2023-04-24T15:11:45;14.90;99.90
40848;DHT22;26570;50.962;5.340;2023-04-24T15:14:31;15.10;99.90
40848;DHT22;26570;50.962;5.340;2023-04-24T15:17:39;14.80;99.90
40848;DHT22;26570;50.962;5.340;2023-04-24T15:20:25;14.90;99.90
40848;DHT22;26570;50.962;5.340;2023-04-24T15:23:11;14.70;99.90
40848;DHT22;26570;50.962;5.340;2023-04-24T15:25:57;14.50;99.90
40848;DHT22;26570;50.962;5.340;2023-04-24T15:28:44;14.50;99.90
40848;DHT22;26570;50.962;5.340;2023-04-24T15:31:31;14.40;99.90
40848;DHT22;26570;50.962;5.340;2023-04-24T15:34:17;14.50;99.90
40848;DHT22;26570;50.962;5.340;2023-04-24T15:37:04;14.50;99.90
40848;DHT22;26570;50.962;5.340;2023-04-24T15:39:50;14.40;99.90
40848;DHT22;26570;50.962;5.340;2023-04-24T15:42:36;14.30;99.90
40848;DHT22;26570;50.962;5.340;2023-04-24T15:45:22;14.20;99.90
40848;DHT22;26570;50.962;5.340;2023-04-24T15:48:08;14.00;99.90
40848;DHT22;26570;50.962;5.340;2023-04-24T15:50:54;13.90;99.90
40848;DHT22;26570;50.962;5.340;2023-04-24T15:53:40;14.00;99.90
40848;DHT22;26570;50.962;5.340;2023-04-24T15:56:26;13.80;99.90
40848;DHT22;26570;50.962;5.340;2023-04-24T15:59:12;13.60;99.90
40848;DHT22;26570;50.962;5.340;2023-04-24T16:01:58;13.30;99.90
40848;DHT22;26570;50.962;5.340;2023-04-24T16:04:45;13.50;99.90
40848;DHT22;26570;50.962;5.340;2023-04-24T16:07:32;13.50;99.90
40848;DHT22;26570;50.962;5.340;2023-04-24T16:10:18;13.50;99.90
40848;DHT22;26570;50.962;5.340;2023-04-24T16:13:05;13.70;99.90
40848;DHT22;26570;50.962;5.340;2023-04-24T16:15:51;13.80;99.90
40848;DHT22;26570;50.962;5.340;2023-04-24T16:18:37;13.70;99.90
40848;DHT22;26570;50.962;5.340;2023-04-24T16:21:23;13.80;99.90
40848;DHT22;26570;50.962;5.340;2023-04-24T16:24:08;13.90;99.90
40848;DHT22;26570;50.962;5.340;2023-04-24T16:26:54;14.20;99.90
40848;DHT22;26570;50.962;5.340;2023-04-24T16:29:40;14.40;99.90
40848;DHT22;26570;50.962;5.340;2023-04-24T16:32:26;14.10;99.90
40848;DHT22;26570;50.962;5.340;2023-04-24T16:35:11;13.90;99.90
40848;DHT22;26570;50.962;5.340;2023-04-24T16:37:57;13.50;99.90
40848;DHT22;26570;50.962;5.340;2023-04-24T16:40:43;13.50;99.90
40848;DHT22;26570;50.962;5.340;2023-04-24T16:43:28;13.50;99.90
40848;DHT22;26570;50.962;5.340;2023-04-24T16:46:15;13.60;99.90
40848;DHT22;26570;50.962;5.340;2023-04-24T16:49:00;13.70;99.90
40848;DHT22;26570;50.962;5.340;2023-04-24T16:51:46;13.80;99.90
40848;DHT22;26570;50.962;5.340;2023-04-24T16:54:32;13.70;99.90
40848;DHT22;26570;50.962;5.340;2023-04-24T16:57:21;13.70;99.90
40848;DHT22;26570;50.962;5.340;2023-04-24T17:00:07;13.70;99.90
40848;DHT22;26570;50.962;5.340;2023-04-24T17:02:53;13.80;99.90
40848;DHT22;26570;50.962;5.340;2023-04-24T17:05:39;13.40;99.90
40848;DHT22;26570;50.962;5.340;2023-04-24T17:08:25;13.50;99.90
40848;DHT22;26570;50.962;5.340;2023-04-24T17:11:10;13.40;99.90
40848;DHT22;26570;50.962;5.340;2023-04-24T17:13:56;13.30;99.90
40848;DHT22;26570;50.962;5.340;2023-04-24T17:16:43;13.20;99.90
40848;DHT22;26570;50.962;5.340;2023-04-24T17:19:52;13.10;99.90
40848;DHT22;26570;50.962;5.340;2023-04-24T17:22:38;13.10;99.90
40848;DHT22;26570;50.962;5.340;2023-04-24T17:25:24;13.00;99.90
40848;DHT22;26570;50.962;5.340;2023-04-24T17:28:24;13.10;99.90
40848;DHT22;26570;50.962;5.340;2023-04-24T17:31:10;13.10;99.90
40848;DHT22;26570;50.962;5.340;2023-04-24T17:33:56;12.80;99.90
40848;DHT22;26570;50.962;5.340;2023-04-24T17:36:43;12.60;99.90
40848;DHT22;26570;50.962;5.340;2023-04-24T17:39:29;12.40;99.90
40848;DHT22;26570;50.962;5.340;2023-04-24T17:42:15;12.40;99.90
40848;DHT22;26570;50.962;5.340;2023-04-24T17:45:00;12.50;99.90
40848;DHT22;26570;50.962;5.340;2023-04-24T17:47:46;12.40;99.90
40848;DHT22;26570;50.962;5.340;2023-04-24T17:50:32;12.20;99.90
40848;DHT22;26570;50.962;5.340;2023-04-24T17:53:19;12.40;99.90
40848;DHT22;26570;50.962;5.340;2023-04-24T17:56:05;12.30;99.90
40848;DHT22;26570;50.962;5.340;2023-04-24T17:58:51;12.30;99.90